createdAt,value
2017-08-07T00:00:42.005Z,1017.95
2017-08-07T00:01:52.529Z,1017.95
2017-08-07T00:03:02.823Z,1017.94
2017-08-07T00:04:13.094Z,1017.95
2017-08-07T00:05:23.368Z,1017.94
2017-08-07T00:06:33.028Z,1017.93
2017-08-07T00:07:43.558Z,1017.91
2017-08-07T00:08:53.525Z,1017.93
2017-08-07T00:10:03.808Z,1017.89
2017-08-07T00:11:14.109Z,1017.9
2017-08-07T00:12:24.406Z,1017.93
2017-08-07T00:13:34.947Z,1017.93
2017-08-07T00:14:45.216Z,1017.92
2017-08-07T00:15:55.185Z,1017.94
2017-08-07T00:17:05.467Z,1017.93
2017-08-07T00:18:15.427Z,1017.94
2017-08-07T00:19:25.964Z,1017.91
2017-08-07T00:20:35.939Z,1017.95
2017-08-07T00:21:45.932Z,1017.93
2017-08-07T00:22:56.220Z,1017.94
2017-08-07T00:24:06.499Z,1017.95
2017-08-07T00:25:17.016Z,1017.93
2017-08-07T00:26:26.992Z,1017.95
2017-08-07T00:27:37.260Z,1018.01
2017-08-07T00:28:47.237Z,1018.03
2017-08-07T00:29:57.227Z,1018.03
2017-08-07T00:31:07.764Z,1018.02
2017-08-07T00:32:17.744Z,1018.05
2017-08-07T00:33:28.035Z,1018.05
2017-08-07T00:34:38.001Z,1018.03
2017-08-07T00:35:48.296Z,1017.97
2017-08-07T00:36:58.823Z,1017.99
2017-08-07T00:38:09.115Z,1017.97
2017-08-07T00:39:19.734Z,1017.98
2017-08-07T00:40:29.707Z,1017.97
2017-08-07T00:41:39.664Z,1017.94
2017-08-07T00:42:50.209Z,1017.94
2017-08-07T00:44:00.512Z,1017.92
2017-08-07T00:45:10.801Z,1017.93
2017-08-07T00:46:21.073Z,1017.93
2017-08-07T00:47:30.730Z,1017.93
2017-08-07T00:48:40.635Z,1017.9
2017-08-07T00:49:50.901Z,1017.89
2017-08-07T00:51:01.180Z,1017.84
2017-08-07T00:52:11.442Z,1017.91
2017-08-07T00:53:21.718Z,1017.85
2017-08-07T00:54:31.678Z,1017.86
2017-08-07T00:55:41.962Z,1017.88
2017-08-07T00:56:52.240Z,1017.89
2017-08-07T00:58:02.524Z,1017.93
2017-08-07T00:59:12.803Z,1017.9
2017-08-07T01:00:23.317Z,1017.97
2017-08-07T01:01:33.309Z,1017.96
2017-08-07T01:02:43.599Z,1017.98
2017-08-07T01:03:53.896Z,1017.96
2017-08-07T01:05:04.167Z,1017.96
2017-08-07T01:06:14.718Z,1017.93
2017-08-07T01:07:24.713Z,1017.91
2017-08-07T01:08:34.986Z,1017.9
2017-08-07T01:09:45.253Z,1017.96
2017-08-07T01:10:55.528Z,1017.9
2017-08-07T01:12:06.066Z,1017.91
2017-08-07T01:13:16.338Z,1017.89
2017-08-07T01:14:26.638Z,1017.89
2017-08-07T01:15:36.614Z,1017.86
2017-08-07T01:16:46.595Z,1017.88
2017-08-07T01:17:57.130Z,1017.87
2017-08-07T01:19:07.422Z,1017.86
2017-08-07T01:20:17.392Z,1017.79
2017-08-07T01:21:27.660Z,1017.78
2017-08-07T01:22:37.943Z,1017.8
2017-08-07T01:23:48.166Z,1017.79
2017-08-07T01:24:58.433Z,1017.8
2017-08-07T01:26:08.405Z,1017.8
2017-08-07T01:27:18.374Z,1017.83
2017-08-07T01:28:28.354Z,1017.81
2017-08-07T01:29:38.918Z,1017.83
2017-08-07T01:30:49.202Z,1017.86
2017-08-07T01:31:59.479Z,1017.82
2017-08-07T01:33:09.757Z,1017.81
2017-08-07T01:34:19.718Z,1017.78
2017-08-07T01:35:30.248Z,1017.8
2017-08-07T01:36:40.518Z,1017.75
2017-08-07T01:37:50.493Z,1017.74
2017-08-07T01:39:00.773Z,1017.77
2017-08-07T01:40:10.744Z,1017.76
2017-08-07T01:41:21.268Z,1017.8
2017-08-07T01:42:31.249Z,1017.79
2017-08-07T01:43:41.214Z,1017.83
2017-08-07T01:44:51.486Z,1017.85
2017-08-07T01:46:01.777Z,1017.82
2017-08-07T01:47:12.296Z,1017.81
2017-08-07T01:48:22.607Z,1017.84
2017-08-07T01:49:32.897Z,1017.9
2017-08-07T01:50:42.859Z,1017.89
2017-08-07T01:51:52.517Z,1017.9
2017-08-07T01:53:02.733Z,1017.87
2017-08-07T01:54:13.005Z,1017.93
2017-08-07T01:55:22.645Z,1017.9
2017-08-07T01:56:32.609Z,1017.93
2017-08-07T01:57:42.873Z,1017.9
2017-08-07T01:58:53.099Z,1017.94
2017-08-07T02:00:03.057Z,1017.93
2017-08-07T02:01:13.340Z,1017.93
2017-08-07T02:02:23.292Z,1017.9
2017-08-07T02:03:33.269Z,1017.92
2017-08-07T02:04:43.507Z,1017.93
2017-08-07T02:05:53.791Z,1017.91
2017-08-07T02:07:03.450Z,1017.85
2017-08-07T02:08:13.105Z,1017.89
2017-08-07T02:09:23.382Z,1017.91
2017-08-07T02:10:33.909Z,1017.92
2017-08-07T02:11:44.203Z,1017.88
2017-08-07T02:12:53.857Z,1017.89
2017-08-07T02:14:03.818Z,1017.89
2017-08-07T02:15:14.085Z,1017.85
2017-08-07T02:16:24.864Z,1017.85
2017-08-07T02:17:35.143Z,1017.87
2017-08-07T02:18:45.407Z,1017.86
2017-08-07T02:19:55.370Z,1017.84
2017-08-07T02:21:05.337Z,1017.84
2017-08-07T02:22:15.860Z,1017.81
2017-08-07T02:23:26.135Z,1017.87
2017-08-07T02:24:36.115Z,1017.84
2017-08-07T02:25:46.085Z,1017.82
2017-08-07T02:26:56.067Z,1017.81
2017-08-07T02:28:06.284Z,1017.85
2017-08-07T02:29:16.608Z,1017.82
2017-08-07T02:30:26.890Z,1017.81
2017-08-07T02:31:37.417Z,1017.86
2017-08-07T02:32:47.707Z,1017.88
2017-08-07T02:33:57.944Z,1017.85
2017-08-07T02:35:08.232Z,1017.86
2017-08-07T02:36:18.512Z,1017.81
2017-08-07T02:37:28.472Z,1017.76
2017-08-07T02:38:38.761Z,1017.81
2017-08-07T02:39:49.291Z,1017.75
2017-08-07T02:40:59.570Z,1017.78
2017-08-07T02:42:09.532Z,1017.8
2017-08-07T02:43:19.809Z,1017.79
2017-08-07T02:44:30.105Z,1017.78
2017-08-07T02:45:40.625Z,1017.74
2017-08-07T02:46:50.588Z,1017.76
2017-08-07T02:48:00.867Z,1017.78
2017-08-07T02:49:11.141Z,1017.8
2017-08-07T02:50:21.117Z,1017.79
2017-08-07T02:51:31.334Z,1017.81
2017-08-07T02:52:41.623Z,1017.83
2017-08-07T02:53:51.587Z,1017.79
2017-08-07T02:55:01.875Z,1017.82
2017-08-07T02:56:12.157Z,1017.82
2017-08-07T02:57:22.691Z,1017.78
2017-08-07T02:58:32.958Z,1017.79
2017-08-07T02:59:43.230Z,1017.78
2017-08-07T03:00:53.522Z,1017.79
2017-08-07T03:02:03.503Z,1017.78
2017-08-07T03:03:14.046Z,1017.81
2017-08-07T03:04:24.332Z,1017.79
2017-08-07T03:05:34.598Z,1017.76
2017-08-07T03:06:44.246Z,1017.76
2017-08-07T03:07:54.528Z,1017.78
2017-08-07T03:09:05.051Z,1017.86
2017-08-07T03:10:15.324Z,1017.83
2017-08-07T03:11:25.616Z,1017.82
2017-08-07T03:12:35.907Z,1017.83
2017-08-07T03:13:46.190Z,1017.85
2017-08-07T03:14:56.721Z,1017.81
2017-08-07T03:16:06.378Z,1017.81
2017-08-07T03:17:16.664Z,1017.8
2017-08-07T03:18:26.954Z,1017.8
2017-08-07T03:19:37.223Z,1017.82
2017-08-07T03:20:47.768Z,1017.82
2017-08-07T03:21:57.730Z,1017.83
2017-08-07T03:23:07.694Z,1017.87
2017-08-07T03:24:17.965Z,1017.9
2017-08-07T03:25:27.945Z,1017.83
2017-08-07T03:26:38.226Z,1017.8
2017-08-07T03:27:48.496Z,1017.85
2017-08-07T03:28:58.790Z,1017.81
2017-08-07T03:30:08.773Z,1017.8
2017-08-07T03:31:18.754Z,1017.83
2017-08-07T03:32:28.969Z,1017.82
2017-08-07T03:33:38.933Z,1017.8
2017-08-07T03:34:49.207Z,1017.8
2017-08-07T03:35:59.196Z,1017.87
2017-08-07T03:37:09.476Z,1017.83
2017-08-07T03:38:20.019Z,1017.85
2017-08-07T03:39:30.282Z,1017.85
2017-08-07T03:40:40.549Z,1017.81
2017-08-07T03:41:50.513Z,1017.86
2017-08-07T03:43:00.795Z,1017.85
2017-08-07T03:44:11.376Z,1017.84
2017-08-07T03:45:21.655Z,1017.88
2017-08-07T03:46:31.623Z,1017.88
2017-08-07T03:47:41.276Z,1017.9
2017-08-07T03:48:51.266Z,1017.88
2017-08-07T03:50:01.791Z,1017.84
2017-08-07T03:51:12.083Z,1017.86
2017-08-07T03:52:22.364Z,1017.87
2017-08-07T03:53:32.341Z,1017.87
2017-08-07T03:54:42.295Z,1017.87
2017-08-07T03:55:52.811Z,1017.88
2017-08-07T03:57:03.081Z,1017.87
2017-08-07T03:58:13.069Z,1017.86
2017-08-07T03:59:23.040Z,1017.89
2017-08-07T04:00:33.309Z,1017.9
2017-08-07T04:01:43.575Z,1017.9
2017-08-07T04:02:53.530Z,1017.92
2017-08-07T04:04:03.828Z,1017.87
2017-08-07T04:05:13.815Z,1017.87
2017-08-07T04:06:23.799Z,1017.91
2017-08-07T04:07:34.351Z,1017.92
2017-08-07T04:08:44.319Z,1017.89
2017-08-07T04:09:54.298Z,1017.87
2017-08-07T04:11:04.263Z,1017.88
2017-08-07T04:12:14.289Z,1017.89
2017-08-07T04:13:24.516Z,1017.87
2017-08-07T04:14:34.824Z,1017.88
2017-08-07T04:15:45.103Z,1017.91
2017-08-07T04:16:55.405Z,1017.94
2017-08-07T04:18:05.691Z,1017.94
2017-08-07T04:19:15.966Z,1017.94
2017-08-07T04:20:25.939Z,1017.92
2017-08-07T04:21:35.909Z,1017.95
2017-08-07T04:22:45.891Z,1017.93
2017-08-07T04:23:56.172Z,1017.93
2017-08-07T04:25:06.441Z,1017.9
2017-08-07T04:26:16.717Z,1017.93
2017-08-07T04:27:26.978Z,1017.92
2017-08-07T04:28:37.289Z,1017.95
2017-08-07T04:29:46.632Z,1017.92
2017-08-07T04:30:56.542Z,1017.95
2017-08-07T04:32:06.821Z,1017.97
2017-08-07T04:33:16.788Z,1017.96
2017-08-07T04:34:27.062Z,1017.97
2017-08-07T04:35:37.338Z,1017.97
2017-08-07T04:36:47.844Z,1017.93
2017-08-07T04:37:57.493Z,1017.94
2017-08-07T04:39:07.780Z,1017.96
2017-08-07T04:40:18.077Z,1017.98
2017-08-07T04:41:28.044Z,1018.01
2017-08-07T04:42:38.617Z,1017.99
2017-08-07T04:43:48.583Z,1018.01
2017-08-07T04:44:58.851Z,1017.99
2017-08-07T04:46:09.140Z,1018.01
2017-08-07T04:47:18.799Z,1017.97
2017-08-07T04:48:29.017Z,1017.99
2017-08-07T04:49:38.980Z,1017.97
2017-08-07T04:50:48.936Z,1017.95
2017-08-07T04:51:58.886Z,1017.94
2017-08-07T04:53:09.176Z,1017.91
2017-08-07T04:54:19.697Z,1017.93
2017-08-07T04:55:29.998Z,1017.95
2017-08-07T04:56:39.960Z,1017.97
2017-08-07T04:57:49.927Z,1017.96
2017-08-07T04:59:00.215Z,1017.94
2017-08-07T05:00:10.741Z,1017.92
2017-08-07T05:01:20.709Z,1017.91
2017-08-07T05:02:31.010Z,1017.92
2017-08-07T05:03:40.984Z,1017.92
2017-08-07T05:04:51.273Z,1017.88
2017-08-07T05:06:01.842Z,1017.9
2017-08-07T05:07:12.134Z,1017.9
2017-08-07T05:08:22.427Z,1017.95
2017-08-07T05:09:32.694Z,1017.9
2017-08-07T05:10:42.667Z,1017.89
2017-08-07T05:11:53.208Z,1017.92
2017-08-07T05:13:03.484Z,1017.95
2017-08-07T05:14:13.769Z,1017.95
2017-08-07T05:15:24.056Z,1017.89
2017-08-07T05:16:33.706Z,1017.9
2017-08-07T05:17:44.281Z,1017.89
2017-08-07T05:18:54.577Z,1017.88
2017-08-07T05:20:04.858Z,1017.9
2017-08-07T05:21:15.142Z,1017.93
2017-08-07T05:22:25.108Z,1017.9
2017-08-07T05:23:35.653Z,1017.92
2017-08-07T05:24:45.930Z,1017.88
2017-08-07T05:25:55.886Z,1017.85
2017-08-07T05:27:06.170Z,1017.85
2017-08-07T05:28:16.440Z,1017.85
2017-08-07T05:29:26.987Z,1017.9
2017-08-07T05:30:37.260Z,1017.87
2017-08-07T05:31:47.564Z,1017.9
2017-08-07T05:32:57.850Z,1017.89
2017-08-07T05:34:08.126Z,1017.9
2017-08-07T05:35:18.653Z,1017.9
2017-08-07T05:36:28.931Z,1017.92
2017-08-07T05:37:38.896Z,1017.9
2017-08-07T05:38:49.176Z,1017.92
2017-08-07T05:39:58.526Z,1017.89
2017-08-07T05:41:09.041Z,1017.9
2017-08-07T05:42:19.000Z,1017.89
2017-08-07T05:43:28.654Z,1017.84
2017-08-07T05:44:38.979Z,1017.83
2017-08-07T05:45:49.261Z,1017.83
2017-08-07T05:46:59.805Z,1017.85
2017-08-07T05:48:10.016Z,1017.87
2017-08-07T05:49:20.298Z,1017.86
2017-08-07T05:50:30.267Z,1017.86
2017-08-07T05:51:40.233Z,1017.85
2017-08-07T05:52:50.757Z,1017.86
2017-08-07T05:54:01.045Z,1017.89
2017-08-07T05:55:11.325Z,1017.84
2017-08-07T05:56:21.609Z,1017.86
2017-08-07T05:57:31.907Z,1017.81
2017-08-07T05:58:42.441Z,1017.85
2017-08-07T05:59:52.737Z,1017.86
2017-08-07T06:01:02.710Z,1017.86
2017-08-07T06:02:12.661Z,1017.89
2017-08-07T06:03:22.667Z,1017.88
2017-08-07T06:04:33.187Z,1017.89
2017-08-07T06:05:43.157Z,1017.89
2017-08-07T06:06:53.432Z,1017.88
2017-08-07T06:08:03.707Z,1017.89
2017-08-07T06:09:13.999Z,1017.89
2017-08-07T06:10:24.531Z,1017.89
2017-08-07T06:11:34.812Z,1017.86
2017-08-07T06:12:45.096Z,1017.86
2017-08-07T06:13:55.078Z,1017.82
2017-08-07T06:15:05.049Z,1017.89
2017-08-07T06:16:15.614Z,1017.86
2017-08-07T06:17:25.570Z,1017.86
2017-08-07T06:18:35.550Z,1017.88
2017-08-07T06:19:45.532Z,1017.85
2017-08-07T06:20:55.187Z,1017.87
2017-08-07T06:22:05.727Z,1017.87
2017-08-07T06:23:15.691Z,1017.89
2017-08-07T06:24:25.347Z,1017.9
2017-08-07T06:25:35.317Z,1017.89
2017-08-07T06:26:45.602Z,1017.92
2017-08-07T06:27:56.186Z,1017.92
2017-08-07T06:29:06.156Z,1017.87
2017-08-07T06:30:16.134Z,1017.88
2017-08-07T06:31:26.413Z,1017.86
2017-08-07T06:32:36.703Z,1017.87
2017-08-07T06:33:47.223Z,1017.87
2017-08-07T06:34:57.510Z,1017.89
2017-08-07T06:36:07.795Z,1017.93
2017-08-07T06:37:18.077Z,1017.91
2017-08-07T06:38:28.346Z,1017.96
2017-08-07T06:39:38.585Z,1017.93
2017-08-07T06:40:48.861Z,1017.92
2017-08-07T06:41:59.143Z,1017.86
2017-08-07T06:43:09.454Z,1017.91
2017-08-07T06:44:19.735Z,1017.89
2017-08-07T06:45:30.279Z,1017.88
2017-08-07T06:46:40.548Z,1017.84
2017-08-07T06:47:50.837Z,1017.83
2017-08-07T06:49:00.807Z,1017.86
2017-08-07T06:50:10.801Z,1017.88
2017-08-07T06:51:21.026Z,1017.85
2017-08-07T06:52:31.321Z,1017.82
2017-08-07T06:53:41.603Z,1017.88
2017-08-07T06:54:51.252Z,1017.88
2017-08-07T06:56:01.218Z,1017.85
2017-08-07T06:57:11.749Z,1017.85
2017-08-07T06:58:22.051Z,1017.85
2017-08-07T06:59:32.054Z,1017.86
2017-08-07T07:00:42.049Z,1017.89
2017-08-07T07:01:52.341Z,1017.88
2017-08-07T07:03:02.884Z,1017.87
2017-08-07T07:04:13.169Z,1017.85
2017-08-07T07:05:23.440Z,1017.87
2017-08-07T07:06:33.732Z,1017.88
2017-08-07T07:07:44.021Z,1017.84
2017-08-07T07:08:54.563Z,1017.8
2017-08-07T07:10:04.532Z,1017.79
2017-08-07T07:11:14.508Z,1017.79
2017-08-07T07:12:24.794Z,1017.81
2017-08-07T07:13:35.079Z,1017.78
2017-08-07T07:14:45.317Z,1017.74
2017-08-07T07:15:55.612Z,1017.74
2017-08-07T07:17:05.891Z,1017.77
2017-08-07T07:18:15.880Z,1017.77
2017-08-07T07:19:25.872Z,1017.73
2017-08-07T07:20:36.399Z,1017.76
2017-08-07T07:21:46.677Z,1017.72
2017-08-07T07:22:56.333Z,1017.75
2017-08-07T07:24:06.318Z,1017.73
2017-08-07T07:25:16.585Z,1017.79
2017-08-07T07:26:26.801Z,1017.79
2017-08-07T07:27:36.783Z,1017.75
2017-08-07T07:28:47.073Z,1017.77
2017-08-07T07:29:57.358Z,1017.72
2017-08-07T07:31:07.327Z,1017.76
2017-08-07T07:32:17.918Z,1017.72
2017-08-07T07:33:27.884Z,1017.72
2017-08-07T07:34:37.855Z,1017.75
2017-08-07T07:35:47.829Z,1017.7
2017-08-07T07:36:57.495Z,1017.72
2017-08-07T07:38:08.015Z,1017.75
2017-08-07T07:39:17.981Z,1017.75
2017-08-07T07:40:28.261Z,1017.73
2017-08-07T07:41:38.220Z,1017.75
2017-08-07T07:42:48.514Z,1017.72
2017-08-07T07:43:59.057Z,1017.81
2017-08-07T07:45:09.346Z,1017.76
2017-08-07T07:46:19.329Z,1017.71
2017-08-07T07:47:29.290Z,1017.74
2017-08-07T07:48:38.954Z,1017.76
2017-08-07T07:49:49.503Z,1017.76
2017-08-07T07:50:59.479Z,1017.8
2017-08-07T07:52:09.451Z,1017.76
2017-08-07T07:53:19.403Z,1017.78
2017-08-07T07:54:29.684Z,1017.8
2017-08-07T07:55:39.897Z,1017.79
2017-08-07T07:56:50.196Z,1017.74
2017-08-07T07:58:00.492Z,1017.74
2017-08-07T07:59:10.769Z,1017.76
2017-08-07T08:00:21.069Z,1017.69
2017-08-07T08:01:31.308Z,1017.66
2017-08-07T08:02:41.605Z,1017.67
2017-08-07T08:03:51.586Z,1017.71
2017-08-07T08:05:01.885Z,1017.69
2017-08-07T08:06:11.548Z,1017.66
2017-08-07T08:07:21.763Z,1017.68
2017-08-07T08:08:32.046Z,1017.68
2017-08-07T08:09:42.318Z,1017.67
2017-08-07T08:10:52.319Z,1017.65
2017-08-07T08:12:02.610Z,1017.63
2017-08-07T08:13:12.990Z,1017.64
2017-08-07T08:14:22.988Z,1017.66
2017-08-07T08:15:32.960Z,1017.63
2017-08-07T08:16:42.930Z,1017.58
2017-08-07T08:17:53.227Z,1017.57
2017-08-07T08:19:03.758Z,1017.59
2017-08-07T08:20:14.047Z,1017.58
2017-08-07T08:21:23.693Z,1017.57
2017-08-07T08:22:33.665Z,1017.57
2017-08-07T08:23:43.646Z,1017.58
2017-08-07T08:24:54.182Z,1017.61
2017-08-07T08:26:04.465Z,1017.57
2017-08-07T08:27:14.430Z,1017.55
2017-08-07T08:28:24.730Z,1017.6
2017-08-07T08:29:35.022Z,1017.61
2017-08-07T08:30:45.566Z,1017.58
2017-08-07T08:31:55.838Z,1017.53
2017-08-07T08:33:06.130Z,1017.53
2017-08-07T08:34:16.417Z,1017.57
2017-08-07T08:35:26.683Z,1017.55
2017-08-07T08:36:36.903Z,1017.54
2017-08-07T08:37:47.190Z,1017.58
2017-08-07T08:38:57.167Z,1017.57
2017-08-07T08:40:06.846Z,1017.56
2017-08-07T08:41:16.823Z,1017.6
2017-08-07T08:42:27.371Z,1017.57
2017-08-07T08:43:37.661Z,1017.61
2017-08-07T08:44:47.636Z,1017.6
2017-08-07T08:45:57.596Z,1017.59
2017-08-07T08:47:07.885Z,1017.58
2017-08-07T08:48:18.434Z,1017.53
2017-08-07T08:49:28.704Z,1017.54
2017-08-07T08:50:38.669Z,1017.5
2017-08-07T08:51:48.324Z,1017.48
2017-08-07T08:52:58.301Z,1017.48
2017-08-07T08:54:08.853Z,1017.5
2017-08-07T08:55:19.138Z,1017.49
2017-08-07T08:56:29.429Z,1017.53
2017-08-07T08:57:39.705Z,1017.53
2017-08-07T08:58:49.991Z,1017.53
2017-08-07T09:00:00.525Z,1017.53
2017-08-07T09:01:10.833Z,1017.49
2017-08-07T09:02:20.813Z,1017.49
2017-08-07T09:03:31.108Z,1017.5
2017-08-07T09:04:41.417Z,1017.45
2017-08-07T09:05:52.008Z,1017.39
2017-08-07T09:07:02.335Z,1017.42
2017-08-07T09:08:12.634Z,1017.37
2017-08-07T09:09:22.613Z,1017.42
2017-08-07T09:10:32.886Z,1017.36
2017-08-07T09:11:43.922Z,1017.42
2017-08-07T09:12:54.217Z,1017.39
2017-08-07T09:14:04.508Z,1017.42
2017-08-07T09:15:14.795Z,1017.39
2017-08-07T09:16:24.760Z,1017.41
2017-08-07T09:17:35.294Z,1017.37
2017-08-07T09:18:45.304Z,1017.42
2017-08-07T09:19:55.280Z,1017.43
2017-08-07T09:21:05.555Z,1017.32
2017-08-07T09:22:15.555Z,1017.42
2017-08-07T09:23:26.098Z,1017.42
2017-08-07T09:24:36.396Z,1017.41
2017-08-07T09:25:46.700Z,1017.33
2017-08-07T09:26:56.982Z,1017.34
2017-08-07T09:28:07.280Z,1017.35
2017-08-07T09:29:18.272Z,1017.34
2017-08-07T09:30:28.817Z,1017.38
2017-08-07T09:31:39.104Z,1017.34
2017-08-07T09:32:49.398Z,1017.31
2017-08-07T09:33:59.672Z,1017.31
2017-08-07T09:35:10.221Z,1017.28
2017-08-07T09:36:20.534Z,1017.26
2017-08-07T09:37:30.512Z,1017.21
2017-08-07T09:38:40.474Z,1017.14
2017-08-07T09:39:50.465Z,1017.13
2017-08-07T09:41:01.008Z,1017.18
2017-08-07T09:42:11.330Z,1017.06
2017-08-07T09:43:21.304Z,1017.2
2017-08-07T09:44:31.612Z,1017.22
2017-08-07T09:45:41.924Z,1017.13
2017-08-07T09:46:52.141Z,1017.17
2017-08-07T09:48:02.130Z,1017.14
2017-08-07T09:49:12.125Z,1017.2
2017-08-07T09:50:22.429Z,1017.2
2017-08-07T09:51:32.405Z,1017.17
2017-08-07T09:52:42.942Z,1017.13
2017-08-07T09:53:53.234Z,1017.13
2017-08-07T09:55:03.214Z,1017.07
2017-08-07T09:56:13.507Z,1017.07
2017-08-07T09:57:23.507Z,1017.08
2017-08-07T09:58:34.036Z,1017.11
2017-08-07T09:59:44.356Z,1017.11
2017-08-07T10:00:54.349Z,1017.12
2017-08-07T10:02:04.625Z,1017.13
2017-08-07T10:03:14.618Z,1017.1
2017-08-07T10:04:25.176Z,1017.14
2017-08-07T10:05:34.855Z,1017.15
2017-08-07T10:06:44.842Z,1017.11
2017-08-07T10:07:55.157Z,1017.14
2017-08-07T10:09:05.445Z,1017.1
2017-08-07T10:10:15.979Z,1017.13
2017-08-07T10:11:25.673Z,1017.17
2017-08-07T10:12:35.971Z,1017.15
2017-08-07T10:13:46.292Z,1017.1
2017-08-07T10:14:56.583Z,1017.08
2017-08-07T10:16:07.129Z,1017.11
2017-08-07T10:17:17.416Z,1017.08
2017-08-07T10:18:27.715Z,1017.13
2017-08-07T10:19:38.019Z,1017.1
2017-08-07T10:20:48.019Z,1017.09
2017-08-07T10:21:58.573Z,1017.08
2017-08-07T10:23:08.547Z,1017.06
2017-08-07T10:24:18.841Z,1017.16
2017-08-07T10:25:28.831Z,1017.06
2017-08-07T10:26:38.831Z,1017.12
2017-08-07T10:27:49.361Z,1017.1
2017-08-07T10:28:59.640Z,1017.12
2017-08-07T10:30:09.648Z,1017.08
2017-08-07T10:31:19.937Z,1017.08
2017-08-07T10:32:29.935Z,1017.05
2017-08-07T10:33:40.475Z,1017.14
2017-08-07T10:34:50.459Z,1017.15
2017-08-07T10:36:00.111Z,1017.1
2017-08-07T10:37:10.411Z,1017.11
2017-08-07T10:38:20.387Z,1017.1
2017-08-07T10:39:30.943Z,1017.02
2017-08-07T10:40:40.949Z,1016.96
2017-08-07T10:41:51.258Z,1016.94
2017-08-07T10:43:01.240Z,1017.01
2017-08-07T10:44:11.544Z,1017
2017-08-07T10:45:21.776Z,1016.95
2017-08-07T10:46:32.078Z,1016.97
2017-08-07T10:47:42.369Z,1016.94
2017-08-07T10:48:52.653Z,1016.97
2017-08-07T10:50:02.624Z,1016.95
2017-08-07T10:51:12.547Z,1016.92
2017-08-07T10:52:22.862Z,1016.89
2017-08-07T10:53:33.151Z,1016.92
2017-08-07T10:54:43.454Z,1016.92
2017-08-07T10:55:53.751Z,1016.9
2017-08-07T10:57:03.982Z,1016.91
2017-08-07T10:58:14.272Z,1016.9
2017-08-07T10:59:24.565Z,1016.9
2017-08-07T11:00:34.881Z,1016.89
2017-08-07T11:01:45.178Z,1016.85
2017-08-07T11:02:55.434Z,1016.87
2017-08-07T11:04:05.107Z,1016.89
2017-08-07T11:05:15.391Z,1016.87
2017-08-07T11:06:25.385Z,1016.85
2017-08-07T11:07:35.684Z,1016.85
2017-08-07T11:08:45.925Z,1016.88
2017-08-07T11:09:55.903Z,1016.91
2017-08-07T11:11:05.896Z,1016.91
2017-08-07T11:12:15.873Z,1016.85
2017-08-07T11:13:26.194Z,1016.74
2017-08-07T11:14:36.754Z,1016.75
2017-08-07T11:15:46.743Z,1016.7
2017-08-07T11:16:57.262Z,1016.73
2017-08-07T11:18:07.554Z,1016.71
2017-08-07T11:19:17.846Z,1016.73
2017-08-07T11:20:28.382Z,1016.77
2017-08-07T11:21:38.080Z,1016.71
2017-08-07T11:22:48.394Z,1016.71
2017-08-07T11:23:58.689Z,1016.72
2017-08-07T11:25:08.994Z,1016.73
2017-08-07T11:26:19.539Z,1016.71
2017-08-07T11:27:29.844Z,1016.72
2017-08-07T11:28:40.110Z,1016.64
2017-08-07T11:29:50.393Z,1016.66
2017-08-07T11:31:00.381Z,1016.64
2017-08-07T11:32:10.910Z,1016.65
2017-08-07T11:33:20.919Z,1016.6
2017-08-07T11:34:30.903Z,1016.66
2017-08-07T11:35:41.205Z,1016.67
2017-08-07T11:36:51.486Z,1016.69
2017-08-07T11:38:02.080Z,1016.64
2017-08-07T11:39:12.054Z,1016.58
2017-08-07T11:40:22.343Z,1016.61
2017-08-07T11:41:32.643Z,1016.63
2017-08-07T11:42:42.623Z,1016.51
2017-08-07T11:43:53.161Z,1016.53
2017-08-07T11:45:03.458Z,1016.49
2017-08-07T11:46:13.808Z,1016.55
2017-08-07T11:47:24.116Z,1016.61
2017-08-07T11:48:34.427Z,1016.51
2017-08-07T11:49:44.964Z,1016.61
2017-08-07T11:50:55.274Z,1016.59
2017-08-07T11:52:05.559Z,1016.59
2017-08-07T11:53:15.843Z,1016.55
2017-08-07T11:54:26.146Z,1016.54
2017-08-07T11:55:36.111Z,1016.46
2017-08-07T11:56:46.099Z,1016.37
2017-08-07T11:57:56.393Z,1016.44
2017-08-07T11:59:06.706Z,1016.49
2017-08-07T12:00:17.037Z,1016.45
2017-08-07T12:01:27.260Z,1016.42
2017-08-07T12:02:37.560Z,1016.33
2017-08-07T12:03:47.530Z,1016.46
2017-08-07T12:04:57.815Z,1016.44
2017-08-07T12:06:07.801Z,1016.32
2017-08-07T12:07:18.350Z,1016.38
2017-08-07T12:08:28.651Z,1016.4
2017-08-07T12:09:38.309Z,1016.44
2017-08-07T12:10:48.293Z,1016.43
2017-08-07T12:11:57.982Z,1016.41
2017-08-07T12:13:08.509Z,1016.38
2017-08-07T12:14:18.826Z,1016.44
2017-08-07T12:15:28.829Z,1016.41
2017-08-07T12:16:39.107Z,1016.46
2017-08-07T12:17:49.396Z,1016.44
2017-08-07T12:19:00.001Z,1016.45
2017-08-07T12:20:09.970Z,1016.42
2017-08-07T12:21:20.265Z,1016.4
2017-08-07T12:22:30.565Z,1016.34
2017-08-07T12:23:40.867Z,1016.3
2017-08-07T12:24:51.399Z,1016.32
2017-08-07T12:26:01.377Z,1016.29
2017-08-07T12:27:11.062Z,1016.21
2017-08-07T12:28:21.364Z,1016.2
2017-08-07T12:29:31.364Z,1016.23
2017-08-07T12:30:41.589Z,1016.25
2017-08-07T12:31:51.576Z,1016.26
2017-08-07T12:33:01.869Z,1016.24
2017-08-07T12:34:12.149Z,1016.23
2017-08-07T12:35:22.146Z,1016.1
2017-08-07T12:36:32.711Z,1016.12
2017-08-07T12:37:43.006Z,1016.12
2017-08-07T12:38:53.019Z,1016.1
2017-08-07T12:40:03.551Z,1016.01
2017-08-07T12:41:13.849Z,1016.02
2017-08-07T12:42:24.396Z,1016.13
2017-08-07T12:43:34.700Z,1016.13
2017-08-07T12:44:44.989Z,1016.15
2017-08-07T12:45:55.298Z,1016.15
2017-08-07T12:47:05.300Z,1016.13
2017-08-07T12:48:15.833Z,1016.14
2017-08-07T12:49:26.135Z,1016.12
2017-08-07T12:50:36.443Z,1016.11
2017-08-07T12:51:46.752Z,1016.11
2017-08-07T12:52:57.052Z,1016.11
2017-08-07T12:54:07.020Z,1016.05
2017-08-07T12:55:17.010Z,1016.05
2017-08-07T12:56:27.354Z,1016.09
2017-08-07T12:57:37.646Z,1016.11
2017-08-07T12:58:47.638Z,1016.06
2017-08-07T12:59:57.882Z,1016.05
2017-08-07T13:01:08.172Z,1016.04
2017-08-07T13:02:18.168Z,1016.05
2017-08-07T13:03:28.158Z,1016.02
2017-08-07T13:04:38.479Z,1016.05
2017-08-07T13:05:49.067Z,1015.98
2017-08-07T13:06:59.356Z,1016.04
2017-08-07T13:08:09.359Z,1016.03
2017-08-07T13:09:19.684Z,1015.99
2017-08-07T13:10:29.972Z,1015.97
2017-08-07T13:11:40.510Z,1016.01
2017-08-07T13:12:50.492Z,1015.93
2017-08-07T13:14:00.483Z,1015.97
2017-08-07T13:15:10.488Z,1015.98
2017-08-07T13:16:20.790Z,1015.95
2017-08-07T13:17:31.347Z,1015.95
2017-08-07T13:18:41.645Z,1015.88
2017-08-07T13:19:51.309Z,1015.91
2017-08-07T13:21:01.602Z,1015.92
2017-08-07T13:22:10.959Z,1015.9
2017-08-07T13:23:21.267Z,1015.95
2017-08-07T13:24:31.271Z,1015.91
2017-08-07T13:25:41.573Z,1015.93
2017-08-07T13:26:51.576Z,1015.91
2017-08-07T13:28:01.880Z,1015.87
2017-08-07T13:29:12.127Z,1015.91
2017-08-07T13:30:22.100Z,1015.85
2017-08-07T13:31:32.394Z,1015.85
2017-08-07T13:32:42.693Z,1015.84
2017-08-07T13:33:52.686Z,1015.82
2017-08-07T13:35:03.304Z,1015.8
2017-08-07T13:36:13.600Z,1015.81
2017-08-07T13:37:23.580Z,1015.86
2017-08-07T13:38:33.576Z,1015.85
2017-08-07T13:39:43.880Z,1015.77
2017-08-07T13:40:54.421Z,1015.83
2017-08-07T13:42:04.410Z,1015.81
2017-08-07T13:43:14.720Z,1015.82
2017-08-07T13:44:25.014Z,1015.8
2017-08-07T13:45:35.013Z,1015.75
2017-08-07T13:46:45.569Z,1015.8
2017-08-07T13:47:55.871Z,1015.81
2017-08-07T13:49:06.161Z,1015.77
2017-08-07T13:50:16.442Z,1015.74
2017-08-07T13:51:26.453Z,1015.76
2017-08-07T13:52:37.000Z,1015.75
2017-08-07T13:53:47.307Z,1015.73
2017-08-07T13:54:57.292Z,1015.73
2017-08-07T13:56:07.274Z,1015.66
2017-08-07T13:57:17.583Z,1015.7
2017-08-07T13:58:27.825Z,1015.7
2017-08-07T13:59:37.808Z,1015.66
2017-08-07T14:00:47.813Z,1015.68
2017-08-07T14:01:58.107Z,1015.66
2017-08-07T14:03:08.118Z,1015.6
2017-08-07T14:04:18.666Z,1015.58
2017-08-07T14:05:28.338Z,1015.65
2017-08-07T14:06:38.323Z,1015.64
2017-08-07T14:07:48.299Z,1015.55
2017-08-07T14:08:58.606Z,1015.58
2017-08-07T14:10:08.877Z,1015.57
2017-08-07T14:11:19.181Z,1015.59
2017-08-07T14:12:29.466Z,1015.62